createdAt,value
2023-06-20T00:09:14.733Z,19.60
2023-06-20T00:19:17.656Z,19.66
2023-06-20T00:29:20.015Z,19.55
2023-06-20T00:39:22.269Z,19.37
2023-06-20T00:49:24.715Z,19.21
2023-06-20T00:59:27.291Z,19.07
2023-06-20T01:09:35.810Z,19.05
2023-06-20T01:19:56.669Z,19.13
2023-06-20T01:30:01.559Z,19.22
2023-06-20T01:40:07.778Z,19.16
2023-06-20T01:50:10.299Z,19.04
2023-06-20T02:00:13.485Z,18.99
2023-06-20T02:10:17.234Z,19.02
2023-06-20T02:20:19.586Z,19.10
2023-06-20T02:30:25.006Z,19.19
2023-06-20T02:40:27.781Z,19.23
2023-06-20T02:50:43.087Z,19.23
2023-06-20T03:00:50.564Z,19.20
2023-06-20T03:10:53.212Z,19.13
2023-06-20T03:20:55.423Z,19.04
2023-06-20T03:30:57.626Z,18.94
2023-06-20T03:41:01.465Z,18.83
2023-06-20T03:51:03.848Z,18.65
2023-06-20T04:01:08.095Z,18.49
2023-06-20T04:11:10.844Z,18.46
2023-06-20T04:21:13.548Z,18.53
2023-06-20T04:31:16.223Z,18.66
2023-06-20T04:41:19.020Z,18.74
2023-06-20T04:51:22.584Z,18.95
2023-06-20T05:01:26.511Z,19.12
2023-06-20T05:11:28.989Z,19.32
2023-06-20T05:21:31.857Z,19.51
2023-06-20T05:31:35.073Z,19.59
2023-06-20T05:41:37.992Z,19.73
2023-06-20T05:51:42.255Z,20.02
2023-06-20T06:01:48.194Z,20.37
2023-06-20T06:11:51.726Z,20.36
2023-06-20T06:21:54.443Z,20.37
2023-06-20T06:32:00.491Z,20.82
2023-06-20T06:42:03.186Z,21.30
2023-06-20T06:52:06.224Z,21.90
2023-06-20T07:02:10.060Z,22.33
2023-06-20T07:12:28.472Z,22.70
2023-06-20T07:22:31.932Z,23.04
2023-06-20T07:43:48.558Z,23.65
2023-06-20T07:53:53.097Z,23.98
2023-06-20T08:04:00.239Z,24.40
2023-06-20T08:14:06.733Z,24.66
2023-06-20T08:24:10.578Z,25.04
2023-06-20T08:34:15.939Z,25.47
2023-06-20T08:44:29.847Z,25.80
2023-06-20T09:05:11.909Z,26.65
2023-06-20T09:15:16.177Z,27.01
2023-06-20T09:25:29.426Z,27.31
2023-06-20T09:35:34.703Z,27.81
2023-06-20T09:45:37.788Z,28.17
2023-06-20T09:55:47.179Z,28.59
2023-06-20T10:05:51.558Z,28.93
2023-06-20T10:15:54.638Z,29.24
2023-06-20T10:26:02.897Z,29.53
2023-06-20T10:36:11.324Z,29.90
2023-06-20T10:46:14.996Z,30.27
2023-06-20T10:56:27.726Z,30.57
2023-06-20T11:06:32.055Z,30.94
2023-06-20T11:16:36.579Z,30.82
2023-06-20T11:26:40.136Z,31.18
2023-06-20T11:36:43.079Z,31.74
2023-06-20T11:46:46.750Z,32.19
2023-06-20T11:56:59.368Z,32.64
2023-06-20T12:07:07.810Z,33.08
2023-06-20T12:17:12.257Z,33.57
2023-06-20T12:27:18.692Z,34.13
2023-06-20T12:37:21.910Z,34.40
2023-06-20T12:47:27.271Z,34.85
2023-06-20T12:57:32.855Z,35.30
2023-06-20T13:07:37.813Z,35.53
2023-06-20T13:17:48.256Z,35.75
2023-06-20T13:28:02.336Z,36.08
2023-06-20T13:38:08.643Z,36.71
2023-06-20T13:48:12.883Z,36.71
2023-06-20T13:58:18.121Z,36.57
2023-06-20T14:08:31.177Z,37.16
2023-06-20T14:18:37.343Z,37.74
2023-06-20T14:28:42.727Z,37.28
2023-06-20T14:38:49.816Z,37.60
2023-06-20T14:48:52.573Z,37.21
2023-06-20T14:58:55.762Z,36.30
2023-06-20T15:08:59.421Z,34.39
2023-06-20T15:19:59.461Z,32.14
2023-06-20T15:30:16.967Z,26.99
2023-06-20T15:40:23.808Z,23.28
2023-06-20T15:50:29.322Z,22.78
2023-06-20T16:00:32.857Z,22.47
2023-06-20T16:10:36.315Z,22.57
2023-06-20T16:20:39.109Z,23.16
2023-06-20T16:30:42.189Z,24.15
2023-06-20T16:40:45.010Z,25.34
2023-06-20T16:50:47.659Z,26.68
2023-06-20T17:00:51.409Z,26.48
2023-06-20T17:10:54.801Z,25.79
2023-06-20T17:20:57.604Z,25.28
2023-06-20T17:31:02.178Z,24.90
2023-06-20T17:41:06.752Z,24.74
2023-06-20T17:51:13.164Z,24.47
2023-06-20T18:01:16.122Z,24.18
2023-06-20T18:11:51.652Z,23.92
2023-06-20T18:22:01.439Z,23.60
2023-06-20T18:32:06.366Z,23.40
2023-06-20T18:42:09.571Z,23.30
2023-06-20T18:52:12.816Z,23.35
2023-06-20T19:02:18.008Z,23.26
2023-06-20T19:12:24.081Z,22.97
2023-06-20T19:22:34.382Z,22.68
2023-06-20T19:32:42.021Z,22.37
2023-06-20T19:43:02.059Z,21.98
2023-06-20T19:53:05.442Z,21.75
2023-06-20T20:03:11.563Z,21.50
2023-06-20T20:13:18.562Z,21.26
2023-06-20T20:23:34.314Z,21.07
2023-06-20T20:33:48.181Z,20.87
2023-06-20T20:43:51.866Z,20.67
2023-06-20T20:53:57.396Z,20.55
2023-06-20T21:04:00.736Z,20.45
2023-06-20T21:14:03.927Z,20.36
2023-06-20T21:24:10.501Z,20.22
2023-06-20T21:34:14.608Z,20.06
2023-06-20T21:44:18.561Z,19.94
2023-06-20T21:54:22.762Z,19.87
2023-06-20T22:04:26.074Z,19.74
2023-06-20T22:14:30.029Z,19.65
2023-06-20T22:24:33.802Z,19.56
2023-06-20T22:34:39.535Z,19.50
2023-06-20T22:44:42.685Z,19.39
2023-06-20T22:54:47.870Z,19.28
2023-06-20T23:04:51.128Z,19.17
2023-06-20T23:14:53.591Z,19.07
2023-06-20T23:24:56.789Z,18.96
2023-06-20T23:34:59.558Z,18.85
2023-06-20T23:45:03.129Z,18.73
2023-06-20T23:55:06.381Z,18.64
